Biddeford, Maine
Current Conditions -  °F | °C
As of 10:51 AM on Sunday 25 Jan 2015 (Local Time) from KPWM Reporting Station
Broken Clouds Broken Clouds  
Wind Chill: 23°   Ceiling: 3700
Heat Index: 33°   Visibility: 10mi
Dew Point: 17°   Wind: 16mph
Humidity: 52%   Direction: 320°NW
Pressure: 29.52"   Gusts: 26mph
Location:  43.49°N, 70.46°W
Report Text: KPWM 251551Z 32014G23KT 10SM FEW026 BKN037 01/M08 A2952 RMK AO2 SLP997 T00061083 $
Loading
Personal Weather Stations






























Interactive Weather Map New forecast layout! Learn more

10-Day Weather Forecast

Advertisements
Track Severe Weather on mobile